createdAt,value
2023-05-18T00:00:46.929Z,260.25
2023-05-18T00:01:54.313Z,240.32
2023-05-18T00:02:58.361Z,262.00
2023-05-18T00:04:04.577Z,276.02
2023-05-18T00:05:09.077Z,281.45
2023-05-18T00:06:14.184Z,360.08
2023-05-18T00:07:16.312Z,311.10
2023-05-18T00:08:21.261Z,224.68
2023-05-18T00:09:26.941Z,299.42
2023-05-18T00:10:40.960Z,279.73
2023-05-18T00:11:43.115Z,252.85
2023-05-18T00:12:47.937Z,256.80
2023-05-18T00:13:50.114Z,260.95
2023-05-18T00:14:54.872Z,256.33
2023-05-18T00:15:57.234Z,262.73
2023-05-18T00:17:02.148Z,273.95
2023-05-18T00:18:04.934Z,372.15
2023-05-18T00:19:09.847Z,285.27
2023-05-18T00:20:12.883Z,305.00
2023-05-18T00:21:18.173Z,297.20
2023-05-18T00:22:20.401Z,324.35
2023-05-18T00:23:25.129Z,226.57
2023-05-18T00:24:29.947Z,294.27
2023-05-18T00:25:34.608Z,319.60
2023-05-18T00:26:37.443Z,302.83
2023-05-18T00:27:42.158Z,263.83
2023-05-18T00:28:44.766Z,361.45
2023-05-18T00:29:49.506Z,331.05
2023-05-18T00:30:51.967Z,322.02
2023-05-18T00:31:56.905Z,305.58
2023-05-18T00:32:59.127Z,345.73
2023-05-18T00:34:03.909Z,384.13
2023-05-18T00:35:07.110Z,525.38
2023-05-18T00:36:12.189Z,362.13
2023-05-18T00:37:14.656Z,377.63
2023-05-18T00:38:19.484Z,337.83
2023-05-18T00:39:21.620Z,342.35
2023-05-18T00:40:30.520Z,360.90
2023-05-18T00:41:33.802Z,302.42
2023-05-18T00:42:38.504Z,378.70
2023-05-18T00:43:41.077Z,356.52
2023-05-18T00:44:45.825Z,328.80
2023-05-18T00:45:48.027Z,325.42
2023-05-18T00:46:53.299Z,354.08
2023-05-18T00:47:55.467Z,357.40
2023-05-18T00:49:02.191Z,309.17
2023-05-18T00:50:05.099Z,351.50
2023-05-18T00:51:10.141Z,379.40
2023-05-18T00:52:12.250Z,369.27
2023-05-18T00:53:17.034Z,443.52
2023-05-18T00:54:20.313Z,462.13
2023-05-18T00:55:25.131Z,447.25
2023-05-18T00:56:34.339Z,461.33
2023-05-18T00:57:39.246Z,423.85
2023-05-18T00:58:42.291Z,448.70
2023-05-18T00:59:47.935Z,414.52
2023-05-18T01:00:50.158Z,431.48
2023-05-18T01:01:54.946Z,384.02
2023-05-18T01:02:57.630Z,436.42
2023-05-18T01:04:03.301Z,379.45
2023-05-18T01:05:06.172Z,337.50
2023-05-18T01:06:13.202Z,447.27
2023-05-18T01:07:16.851Z,364.58
2023-05-18T01:08:21.941Z,388.23
2023-05-18T01:09:24.753Z,454.52
2023-05-18T01:10:29.765Z,419.73
2023-05-18T01:11:56.184Z,377.65
2023-05-18T01:13:06.080Z,425.75
2023-05-18T01:14:14.173Z,420.83
2023-05-18T01:15:25.312Z,353.90
2023-05-18T01:16:37.637Z,447.13
2023-05-18T01:17:53.064Z,332.52
2023-05-18T01:19:01.416Z,373.50
2023-05-18T01:20:22.161Z,353.75
2023-05-18T01:21:43.501Z,389.73
2023-05-18T01:23:10.448Z,446.02
2023-05-18T01:24:31.371Z,388.98
2023-05-18T01:25:41.236Z,369.15
2023-05-18T01:26:50.758Z,364.33
2023-05-18T01:27:57.088Z,312.15
2023-05-18T01:29:01.782Z,385.80
2023-05-18T01:30:07.909Z,292.40
2023-05-18T01:31:11.069Z,518.50
2023-05-18T01:32:22.380Z,380.02
2023-05-18T01:33:25.387Z,383.45
2023-05-18T01:34:30.145Z,420.23
2023-05-18T01:35:32.364Z,377.13
2023-05-18T01:36:37.417Z,396.90
2023-05-18T01:37:40.194Z,369.80
2023-05-18T01:38:46.617Z,493.08
2023-05-18T01:39:48.805Z,366.67
2023-05-18T01:41:01.675Z,265.17
2023-05-18T01:42:14.613Z,363.55
2023-05-18T01:43:20.730Z,399.30
2023-05-18T01:44:29.686Z,424.70
2023-05-18T01:45:32.864Z,358.90
2023-05-18T01:46:43.014Z,410.92
2023-05-18T01:47:49.134Z,361.45
2023-05-18T01:48:59.324Z,374.27
2023-05-18T01:50:06.586Z,399.13
2023-05-18T01:51:16.350Z,382.75
2023-05-18T01:52:21.544Z,401.08
2023-05-18T01:53:30.876Z,433.33
2023-05-18T01:54:34.014Z,273.98
2023-05-18T01:55:40.564Z,436.85
2023-05-18T01:56:44.656Z,349.67
2023-05-18T01:57:54.347Z,362.95
2023-05-18T01:58:57.978Z,453.20
2023-05-18T02:00:04.845Z,368.65
2023-05-18T02:01:07.589Z,249.65
2023-05-18T02:02:12.402Z,384.92
2023-05-18T02:03:15.236Z,360.60
2023-05-18T02:04:20.120Z,404.92
2023-05-18T02:05:22.421Z,433.60
2023-05-18T02:06:27.155Z,423.08
2023-05-18T02:07:29.285Z,379.17
2023-05-18T02:08:35.086Z,376.23
2023-05-18T02:09:37.326Z,403.13
2023-05-18T02:10:42.097Z,376.05
2023-05-18T02:11:44.216Z,402.02
2023-05-18T02:12:53.041Z,328.13
2023-05-18T02:13:55.197Z,349.65
2023-05-18T02:15:01.230Z,351.58
2023-05-18T02:16:04.358Z,353.10
2023-05-18T02:17:10.460Z,348.23
2023-05-18T02:18:12.713Z,335.85
2023-05-18T02:19:17.792Z,378.55
2023-05-18T02:20:20.102Z,434.88
2023-05-18T02:21:26.285Z,408.65
2023-05-18T02:22:28.442Z,371.75
2023-05-18T02:23:34.171Z,430.48
2023-05-18T02:24:36.808Z,385.00
2023-05-18T02:25:42.215Z,355.13
2023-05-18T02:26:44.595Z,485.48
2023-05-18T02:27:52.860Z,377.63
2023-05-18T02:28:54.988Z,338.85
2023-05-18T02:29:59.716Z,287.02
2023-05-18T02:31:06.362Z,372.77
2023-05-18T02:32:11.802Z,421.20
2023-05-18T02:33:14.262Z,394.42
2023-05-18T02:34:19.870Z,403.88
2023-05-18T02:35:22.020Z,505.95
2023-05-18T02:36:26.894Z,331.42
2023-05-18T02:37:29.192Z,440.13
2023-05-18T02:38:33.847Z,453.45
2023-05-18T02:39:35.975Z,400.90
2023-05-18T02:40:40.890Z,321.83
2023-05-18T02:41:43.074Z,475.30
2023-05-18T02:42:47.806Z,290.25
2023-05-18T02:43:52.476Z,407.10
2023-05-18T02:44:57.163Z,508.42
2023-05-18T02:45:59.395Z,396.40
2023-05-18T02:47:04.099Z,400.67
2023-05-18T02:48:06.896Z,325.85
2023-05-18T02:49:12.104Z,380.38
2023-05-18T02:50:14.226Z,251.27
2023-05-18T02:51:18.956Z,415.98
2023-05-18T02:52:21.015Z,395.33
2023-05-18T02:53:26.665Z,387.13
2023-05-18T02:54:28.750Z,438.45
2023-05-18T02:55:33.470Z,381.05
2023-05-18T02:56:35.699Z,471.10
2023-05-18T02:57:40.475Z,423.27
2023-05-18T02:58:43.912Z,374.83
2023-05-18T02:59:51.197Z,362.17
2023-05-18T03:00:55.675Z,305.70
2023-05-18T03:02:00.481Z,351.15
2023-05-18T03:03:03.129Z,369.80
2023-05-18T03:04:08.073Z,373.52
2023-05-18T03:05:10.605Z,376.30
2023-05-18T03:06:16.545Z,366.33
2023-05-18T03:07:19.012Z,393.27
2023-05-18T03:08:24.016Z,410.35
2023-05-18T03:09:26.728Z,420.35
2023-05-18T03:10:31.618Z,392.67
2023-05-18T03:11:33.748Z,374.60
2023-05-18T03:12:38.457Z,389.00
2023-05-18T03:13:40.592Z,372.60
2023-05-18T03:14:45.317Z,371.05
2023-05-18T03:15:51.182Z,397.73
2023-05-18T03:16:58.085Z,216.38
2023-05-18T03:18:00.440Z,255.00
2023-05-18T03:19:05.221Z,465.13
2023-05-18T03:20:10.751Z,227.65
2023-05-18T03:21:15.701Z,328.35
2023-05-18T03:22:18.315Z,412.65
2023-05-18T03:23:23.025Z,347.20
2023-05-18T03:24:30.634Z,282.35
2023-05-18T03:25:38.385Z,439.83
2023-05-18T03:26:42.054Z,349.67
2023-05-18T03:27:46.989Z,382.92
2023-05-18T03:28:49.077Z,427.65
2023-05-18T03:29:54.392Z,428.85
2023-05-18T03:30:59.166Z,401.42
2023-05-18T03:32:04.246Z,414.05
2023-05-18T03:33:06.393Z,310.20
2023-05-18T03:34:11.106Z,441.23
2023-05-18T03:35:13.224Z,383.48
2023-05-18T03:36:17.893Z,397.77
2023-05-18T03:37:20.094Z,490.27
2023-05-18T03:38:24.822Z,379.02
2023-05-18T03:39:26.901Z,446.58
2023-05-18T03:40:31.949Z,439.08
2023-05-18T03:41:34.166Z,410.83
2023-05-18T03:42:38.891Z,441.65
2023-05-18T03:43:41.041Z,363.55
2023-05-18T03:44:46.181Z,395.10
2023-05-18T03:45:48.323Z,366.13
2023-05-18T03:46:55.820Z,405.00
2023-05-18T03:47:58.067Z,382.45
2023-05-18T03:49:05.092Z,346.73
2023-05-18T03:50:08.332Z,460.67
2023-05-18T03:51:13.072Z,325.25
2023-05-18T03:52:16.156Z,363.10
2023-05-18T03:53:21.869Z,366.35
2023-05-18T03:54:24.815Z,432.55
2023-05-18T03:55:30.284Z,385.75
2023-05-18T03:56:32.840Z,216.70
2023-05-18T03:57:37.550Z,396.67
2023-05-18T03:58:39.782Z,342.42
2023-05-18T03:59:45.367Z,381.15
2023-05-18T04:00:47.737Z,346.90
2023-05-18T04:01:55.167Z,374.17
2023-05-18T04:02:57.550Z,346.30
2023-05-18T04:04:02.758Z,345.48
2023-05-18T04:05:05.647Z,363.05
2023-05-18T04:06:11.277Z,335.88
2023-05-18T04:07:15.630Z,382.52
2023-05-18T04:08:20.468Z,338.05
2023-05-18T04:09:24.053Z,272.15
2023-05-18T04:10:28.861Z,427.77
2023-05-18T04:11:31.226Z,374.90
2023-05-18T04:12:35.907Z,362.77
2023-05-18T04:13:42.166Z,359.38
2023-05-18T04:14:44.312Z,353.42
2023-05-18T04:15:49.014Z,391.05
2023-05-18T04:16:54.151Z,374.65
2023-05-18T04:17:59.936Z,373.40
2023-05-18T04:19:06.260Z,364.42
2023-05-18T04:20:14.464Z,365.70
2023-05-18T04:21:17.621Z,407.02
2023-05-18T04:22:22.291Z,404.17
2023-05-18T04:23:24.436Z,406.35
2023-05-18T04:24:29.650Z,383.50
2023-05-18T04:25:32.062Z,475.67
2023-05-18T04:26:38.694Z,378.98
2023-05-18T04:27:42.145Z,391.50
2023-05-18T04:28:47.469Z,457.73
2023-05-18T04:29:49.605Z,426.52
2023-05-18T04:30:54.587Z,291.02
2023-05-18T04:32:01.304Z,331.52
2023-05-18T04:33:06.853Z,384.70
2023-05-18T04:34:09.306Z,382.08
2023-05-18T04:35:20.299Z,399.30
2023-05-18T04:36:25.901Z,396.90
2023-05-18T04:37:30.614Z,414.00
2023-05-18T04:38:34.749Z,287.08
2023-05-18T04:39:39.809Z,373.55
2023-05-18T04:40:42.988Z,365.35
2023-05-18T04:41:47.673Z,414.63
2023-05-18T04:42:49.899Z,225.15
2023-05-18T04:43:55.446Z,391.25
2023-05-18T04:44:59.026Z,357.90
2023-05-18T04:46:03.804Z,344.05
2023-05-18T04:47:08.799Z,360.27
2023-05-18T04:48:14.632Z,356.77
2023-05-18T04:49:16.820Z,223.57
2023-05-18T04:50:24.011Z,394.30
2023-05-18T04:51:26.334Z,364.50
2023-05-18T04:52:31.166Z,385.65
2023-05-18T04:53:33.815Z,378.85
2023-05-18T04:54:41.279Z,352.20
2023-05-18T04:55:43.460Z,329.90
2023-05-18T04:56:48.165Z,368.17
2023-05-18T04:57:50.978Z,320.90
2023-05-18T04:58:59.565Z,351.67
2023-05-18T05:00:02.430Z,409.88
2023-05-18T05:01:08.181Z,298.45
2023-05-18T05:02:12.952Z,325.83
2023-05-18T05:03:17.752Z,373.00
2023-05-18T05:04:21.781Z,365.38
2023-05-18T05:05:27.801Z,271.75
2023-05-18T05:06:30.101Z,388.27
2023-05-18T05:07:34.804Z,355.35
2023-05-18T05:08:37.371Z,345.75
2023-05-18T05:09:42.543Z,373.77
2023-05-18T05:10:44.661Z,317.83
2023-05-18T05:11:49.562Z,324.65
2023-05-18T05:12:52.217Z,350.70
2023-05-18T05:13:57.027Z,344.15
2023-05-18T05:14:59.209Z,349.27
2023-05-18T05:16:04.023Z,411.42
2023-05-18T05:17:06.209Z,342.67
2023-05-18T05:18:13.539Z,345.95
2023-05-18T05:19:15.783Z,478.85
2023-05-18T05:20:21.074Z,276.35
2023-05-18T05:21:23.232Z,371.05
2023-05-18T05:22:28.134Z,493.27
2023-05-18T05:23:30.223Z,400.70
2023-05-18T05:24:34.964Z,407.30
2023-05-18T05:25:37.108Z,470.58
2023-05-18T05:26:41.810Z,389.58
2023-05-18T05:27:44.103Z,261.55
2023-05-18T05:28:48.965Z,352.17
2023-05-18T05:29:51.318Z,350.42
2023-05-18T05:30:56.057Z,337.45
2023-05-18T05:31:58.179Z,323.77
2023-05-18T05:33:03.068Z,329.92
2023-05-18T05:34:07.795Z,436.05
2023-05-18T05:35:13.251Z,281.85
2023-05-18T05:36:15.316Z,357.95
2023-05-18T05:37:20.963Z,366.65
2023-05-18T05:38:25.977Z,348.63
2023-05-18T05:39:30.636Z,375.98
2023-05-18T05:40:33.274Z,387.35
2023-05-18T05:41:37.977Z,352.23
2023-05-18T05:42:40.066Z,320.23
2023-05-18T05:43:44.757Z,301.55
2023-05-18T05:44:46.902Z,268.25
2023-05-18T05:45:51.778Z,275.52
2023-05-18T05:46:53.950Z,231.00
2023-05-18T05:47:58.734Z,253.85
2023-05-18T05:49:02.283Z,232.18
2023-05-18T05:50:10.616Z,282.35
2023-05-18T05:51:12.781Z,279.67
2023-05-18T05:52:17.578Z,234.45
2023-05-18T05:53:21.077Z,262.73
2023-05-18T05:54:25.873Z,285.95
2023-05-18T05:55:28.180Z,235.80
2023-05-18T05:56:32.865Z,255.52
2023-05-18T05:57:35.027Z,176.02
2023-05-18T05:58:39.752Z,288.70
2023-05-18T05:59:41.939Z,252.15
2023-05-18T06:00:47.429Z,153.45
2023-05-18T06:01:49.665Z,273.00
2023-05-18T06:02:54.490Z,247.70
2023-05-18T06:03:56.725Z,272.13
2023-05-18T06:05:01.848Z,259.13
2023-05-18T06:06:06.992Z,264.63
2023-05-18T06:07:11.728Z,184.05
2023-05-18T06:08:13.856Z,252.35
2023-05-18T06:09:18.927Z,244.70
2023-05-18T06:10:21.089Z,178.18
2023-05-18T06:11:25.791Z,256.85
2023-05-18T06:12:28.161Z,312.92
2023-05-18T06:13:32.864Z,294.38
2023-05-18T06:14:35.026Z,282.13
2023-05-18T06:15:39.735Z,208.27
2023-05-18T06:16:42.291Z,337.88
2023-05-18T06:17:47.290Z,283.67
2023-05-18T06:18:49.655Z,315.10
2023-05-18T06:19:54.413Z,278.65
2023-05-18T06:20:56.987Z,263.05
2023-05-18T06:22:04.375Z,163.63
2023-05-18T06:23:06.515Z,285.42
2023-05-18T06:24:11.932Z,251.18
2023-05-18T06:25:14.204Z,271.13
2023-05-18T06:26:18.907Z,291.23
2023-05-18T06:27:23.785Z,290.92
2023-05-18T06:28:31.343Z,277.83
2023-05-18T06:29:33.449Z,358.38
2023-05-18T06:30:38.170Z,314.05
2023-05-18T06:31:41.736Z,343.08
2023-05-18T06:32:46.632Z,308.95
2023-05-18T06:33:48.918Z,346.75
2023-05-18T06:34:53.733Z,318.33
2023-05-18T06:35:56.305Z,343.48
2023-05-18T06:37:01.530Z,410.77
2023-05-18T06:38:06.305Z,393.30
2023-05-18T06:39:11.115Z,391.23
2023-05-18T06:40:13.443Z,323.77
2023-05-18T06:41:18.302Z,429.48
2023-05-18T06:42:20.404Z,384.20
2023-05-18T06:43:27.028Z,462.80
2023-05-18T06:44:29.136Z,359.35
2023-05-18T06:45:36.802Z,136.77
2023-05-18T06:46:39.893Z,236.38
2023-05-18T06:47:44.996Z,225.75
2023-05-18T06:48:47.493Z,204.25
2023-05-18T06:49:52.259Z,287.70
2023-05-18T06:50:54.449Z,226.20
2023-05-18T06:51:59.077Z,218.95
2023-05-18T06:53:04.784Z,171.45
2023-05-18T06:54:12.172Z,183.20
2023-05-18T06:55:15.578Z,112.22
2023-05-18T06:56:20.277Z,176.52
2023-05-18T06:57:22.416Z,165.70
2023-05-18T06:58:27.095Z,194.02
2023-05-18T06:59:29.404Z,213.85
2023-05-18T07:00:34.093Z,203.82
2023-05-18T07:01:36.263Z,199.73
2023-05-18T07:02:41.501Z,241.25
2023-05-18T07:03:44.015Z,214.40
2023-05-18T07:04:48.900Z,188.70
2023-05-18T07:05:51.080Z,192.65
2023-05-18T07:06:56.578Z,200.77
2023-05-18T07:07:58.749Z,202.00
2023-05-18T07:09:06.002Z,192.07
2023-05-18T07:10:11.488Z,178.23
2023-05-18T07:11:16.598Z,200.52
2023-05-18T07:12:21.351Z,220.30
2023-05-18T07:13:23.765Z,194.40
2023-05-18T07:14:28.586Z,244.07
2023-05-18T07:15:31.063Z,225.50
2023-05-18T07:16:36.056Z,145.88
2023-05-18T07:17:38.838Z,217.07
2023-05-18T07:18:44.685Z,184.30
2023-05-18T07:19:46.844Z,203.75
2023-05-18T07:20:51.708Z,215.25
2023-05-18T07:21:57.075Z,197.52
2023-05-18T07:22:59.262Z,198.65
2023-05-18T07:24:04.191Z,111.65
2023-05-18T07:25:06.688Z,198.60
2023-05-18T07:26:14.773Z,227.35
2023-05-18T07:27:19.520Z,249.93
2023-05-18T07:28:21.984Z,236.52
2023-05-18T07:29:27.077Z,236.27
2023-05-18T07:30:29.269Z,239.50
2023-05-18T07:31:34.159Z,260.63
2023-05-18T07:32:36.480Z,393.42
2023-05-18T07:33:41.282Z,408.20
2023-05-18T07:34:43.848Z,273.98
2023-05-18T07:35:48.678Z,385.55
2023-05-18T07:36:50.878Z,427.42
2023-05-18T07:37:56.090Z,428.88
2023-05-18T07:39:00.240Z,436.92
2023-05-18T07:40:05.543Z,463.20
2023-05-18T07:41:07.721Z,476.13
2023-05-18T07:42:15.110Z,557.75
2023-05-18T07:43:17.248Z,521.47
2023-05-18T07:44:23.039Z,474.67
2023-05-18T07:45:27.859Z,470.50
2023-05-18T07:46:30.058Z,511.25
2023-05-18T07:47:34.911Z,501.40
2023-05-18T07:48:39.001Z,433.02
2023-05-18T07:49:45.465Z,394.77
2023-05-18T07:50:47.899Z,452.30
2023-05-18T07:51:52.692Z,453.30
2023-05-18T07:52:54.853Z,514.58
2023-05-18T07:53:59.538Z,440.27
2023-05-18T07:55:01.917Z,276.17
2023-05-18T07:56:07.724Z,378.25
2023-05-18T07:57:13.172Z,407.08
2023-05-18T07:58:17.858Z,381.85
2023-05-18T07:59:20.652Z,376.88
2023-05-18T08:00:25.661Z,370.23
2023-05-18T08:01:30.343Z,431.27
2023-05-18T08:02:35.407Z,428.52
2023-05-18T08:03:37.795Z,295.05
2023-05-18T08:04:42.656Z,333.98
2023-05-18T08:05:47.393Z,347.13
2023-05-18T08:06:56.370Z,322.77
2023-05-18T08:07:59.184Z,341.42
2023-05-18T08:09:04.512Z,387.10
2023-05-18T08:10:07.222Z,215.73
2023-05-18T08:11:12.059Z,413.08
2023-05-18T08:12:16.823Z,432.65
2023-05-18T08:13:21.769Z,339.17
2023-05-18T08:14:23.938Z,470.45
2023-05-18T08:15:29.270Z,423.42
2023-05-18T08:16:53.162Z,482.60
2023-05-18T08:17:57.995Z,322.98
2023-05-18T08:19:00.643Z,361.80
2023-05-18T08:20:05.569Z,315.50
2023-05-18T08:21:09.890Z,310.63
2023-05-18T08:22:15.078Z,367.30
2023-05-18T08:23:17.172Z,330.63
2023-05-18T08:24:22.247Z,320.25
2023-05-18T08:25:25.452Z,335.70
2023-05-18T08:26:30.118Z,331.88
2023-05-18T08:27:37.434Z,398.48
2023-05-18T08:28:42.728Z,362.67
2023-05-18T08:29:47.549Z,345.65
2023-05-18T08:30:49.651Z,280.98
2023-05-18T08:31:55.029Z,267.17
2023-05-18T08:32:57.212Z,309.48
2023-05-18T08:34:01.992Z,397.92
2023-05-18T08:35:08.629Z,322.63
2023-05-18T08:36:11.381Z,308.92
2023-05-18T08:37:16.058Z,349.00
2023-05-18T08:38:18.451Z,329.95
2023-05-18T08:39:23.233Z,342.98
2023-05-18T08:40:36.184Z,340.05
2023-05-18T08:41:44.200Z,330.40
2023-05-18T08:43:04.457Z,302.35
2023-05-18T08:44:12.325Z,279.48
2023-05-18T08:45:24.143Z,318.58
2023-05-18T08:46:31.924Z,306.30
2023-05-18T08:47:38.440Z,303.08
2023-05-18T08:48:46.510Z,350.38
2023-05-18T08:49:54.678Z,334.33
2023-05-18T08:50:58.950Z,270.00
2023-05-18T08:52:07.214Z,359.60
2023-05-18T08:53:11.414Z,323.20
2023-05-18T08:54:22.449Z,350.10
2023-05-18T08:55:25.897Z,327.45
2023-05-18T08:56:33.684Z,298.95
2023-05-18T08:57:37.636Z,251.60
2023-05-18T08:58:50.886Z,310.85
2023-05-18T08:59:57.580Z,309.35
2023-05-18T09:01:00.301Z,316.23
2023-05-18T09:02:05.190Z,316.65
2023-05-18T09:03:07.733Z,401.92
2023-05-18T09:04:13.411Z,390.42
2023-05-18T09:05:16.401Z,426.40
2023-05-18T09:06:24.827Z,565.05
2023-05-18T09:07:28.373Z,453.90
2023-05-18T09:08:34.088Z,546.30
2023-05-18T09:09:39.078Z,565.08
2023-05-18T09:10:41.504Z,515.00
2023-05-18T09:11:47.303Z,447.33
2023-05-18T09:12:51.069Z,512.25
2023-05-18T09:13:58.527Z,455.23
2023-05-18T09:15:01.488Z,409.33
2023-05-18T09:16:08.084Z,430.05
2023-05-18T09:17:12.963Z,593.17
2023-05-18T09:18:15.102Z,500.08
2023-05-18T09:19:20.412Z,324.95
2023-05-18T09:20:22.775Z,791.00
2023-05-18T09:21:27.570Z,268.55
2023-05-18T09:22:35.733Z,308.65
2023-05-18T09:23:41.672Z,297.10
2023-05-18T09:24:44.173Z,309.98
2023-05-18T09:25:50.517Z,289.98
2023-05-18T09:26:52.868Z,315.25
2023-05-18T09:27:57.585Z,183.63
2023-05-18T09:29:17.785Z,278.45
2023-05-18T09:30:22.733Z,295.98
2023-05-18T09:31:26.831Z,195.75
2023-05-18T09:32:32.356Z,236.48
2023-05-18T09:33:39.973Z,235.35
2023-05-18T09:34:43.518Z,223.48
2023-05-18T09:35:48.964Z,248.98
2023-05-18T09:36:57.979Z,198.95
2023-05-18T09:38:03.955Z,218.40
2023-05-18T09:39:12.413Z,233.38
2023-05-18T09:40:16.847Z,196.27
2023-05-18T09:41:22.488Z,186.10
2023-05-18T09:42:30.530Z,184.90
2023-05-18T09:43:38.278Z,204.15
2023-05-18T09:44:46.425Z,242.80
2023-05-18T09:45:49.912Z,173.82
2023-05-18T09:46:59.005Z,143.70
2023-05-18T09:48:01.136Z,182.73
2023-05-18T09:49:07.129Z,260.20
2023-05-18T09:50:10.446Z,316.38
2023-05-18T09:51:17.537Z,319.48
2023-05-18T09:52:19.622Z,230.63
2023-05-18T09:53:26.009Z,189.15
2023-05-18T09:54:28.387Z,197.30
2023-05-18T09:55:33.452Z,262.88
2023-05-18T09:56:40.953Z,280.60
2023-05-18T09:57:44.575Z,283.45
2023-05-18T09:58:49.778Z,306.63
2023-05-18T10:00:04.821Z,281.77
2023-05-18T10:01:09.609Z,336.48
2023-05-18T10:02:13.634Z,439.17
2023-05-18T10:03:23.234Z,408.33
2023-05-18T10:04:39.011Z,352.10
2023-05-18T10:05:45.494Z,442.67
2023-05-18T10:06:49.764Z,476.50
2023-05-18T10:07:54.554Z,406.00
2023-05-18T10:09:00.308Z,443.58
2023-05-18T10:10:03.918Z,403.13
2023-05-18T10:11:09.032Z,316.67
2023-05-18T10:12:12.263Z,369.02
2023-05-18T10:13:20.160Z,488.88
2023-05-18T10:14:24.715Z,1121.05
2023-05-18T10:15:34.277Z,465.50
2023-05-18T10:16:39.730Z,503.30
2023-05-18T10:17:43.922Z,301.85
2023-05-18T10:18:51.116Z,273.42
2023-05-18T10:19:55.987Z,285.95
2023-05-18T10:21:02.432Z,194.77
2023-05-18T10:22:06.658Z,299.17
2023-05-18T10:23:12.621Z,283.42
2023-05-18T10:24:20.612Z,312.65
2023-05-18T10:25:26.290Z,320.13
2023-05-18T10:26:33.368Z,296.60
2023-05-18T10:27:39.441Z,301.15
2023-05-18T10:28:47.595Z,324.52
2023-05-18T10:29:52.715Z,253.82
2023-05-18T10:31:01.430Z,267.10
2023-05-18T10:32:12.765Z,470.13
2023-05-18T10:33:28.455Z,187.05
2023-05-18T10:34:35.742Z,268.13
2023-05-18T10:35:38.997Z,372.95
2023-05-18T10:36:44.918Z,287.73
2023-05-18T10:37:48.294Z,391.55
2023-05-18T10:38:53.487Z,370.90
2023-05-18T10:39:56.627Z,387.52
2023-05-18T10:41:03.115Z,389.08
2023-05-18T10:42:08.843Z,347.33
2023-05-18T10:43:16.255Z,405.67
2023-05-18T10:44:22.243Z,463.60
2023-05-18T10:45:28.524Z,313.02
2023-05-18T10:47:42.752Z,263.25
2023-05-18T10:48:53.704Z,269.35
2023-05-18T10:49:56.651Z,232.57
2023-05-18T10:51:05.706Z,257.52
2023-05-18T10:52:09.328Z,245.25
2023-05-18T10:53:15.899Z,322.52
2023-05-18T10:54:18.787Z,246.65
2023-05-18T10:55:23.503Z,256.38
2023-05-18T10:56:26.411Z,278.60
2023-05-18T10:57:38.118Z,304.00
2023-05-18T10:58:43.544Z,189.93
2023-05-18T10:59:48.495Z,302.73
2023-05-18T11:00:57.424Z,259.05
2023-05-18T11:02:02.640Z,276.13
2023-05-18T11:03:13.819Z,268.00
2023-05-18T11:04:16.116Z,249.38
2023-05-18T11:05:27.147Z,225.48
2023-05-18T11:06:29.259Z,263.10
2023-05-18T11:07:34.695Z,247.38
2023-05-18T11:08:44.065Z,263.63
2023-05-18T11:09:48.801Z,257.23
2023-05-18T11:11:03.320Z,280.27
2023-05-18T11:12:12.295Z,263.77
2023-05-18T11:13:18.112Z,148.90
2023-05-18T11:14:26.557Z,268.63
2023-05-18T11:16:01.548Z,280.85
2023-05-18T11:17:26.364Z,251.38
2023-05-18T11:18:36.336Z,186.10
2023-05-18T11:19:41.138Z,256.25
2023-05-18T11:20:45.721Z,343.25
2023-05-18T11:21:55.412Z,278.45
2023-05-18T11:23:03.569Z,257.60
2023-05-18T11:24:20.614Z,291.45
2023-05-18T11:25:38.803Z,294.40
2023-05-18T11:26:44.107Z,275.83
2023-05-18T11:27:49.754Z,266.00
2023-05-18T11:28:56.363Z,297.08
2023-05-18T11:30:11.722Z,169.13
2023-05-18T11:31:21.306Z,244.48
2023-05-18T11:32:33.116Z,228.38
2023-05-18T11:33:40.515Z,395.17
2023-05-18T11:34:45.521Z,298.45
2023-05-18T11:36:07.484Z,273.00
2023-05-18T11:38:16.600Z,299.23
2023-05-18T11:39:24.289Z,304.42
2023-05-18T11:40:47.546Z,259.15
2023-05-18T11:42:02.073Z,384.92
2023-05-18T11:43:07.108Z,280.92
2023-05-18T11:44:17.144Z,279.67
2023-05-18T11:45:22.032Z,295.27
2023-05-18T11:46:32.714Z,295.83
2023-05-18T11:47:41.275Z,314.07
2023-05-18T11:48:45.242Z,295.27
2023-05-18T11:49:51.178Z,448.73
2023-05-18T11:50:56.660Z,265.58
2023-05-18T11:52:11.625Z,322.27
2023-05-18T11:53:16.379Z,317.75
2023-05-18T11:54:21.499Z,276.20
2023-05-18T11:55:40.679Z,241.85
2023-05-18T11:56:42.889Z,349.25
2023-05-18T11:57:50.691Z,473.77
2023-05-18T11:59:14.143Z,351.00
2023-05-18T12:00:20.280Z,343.33
2023-05-18T12:01:23.935Z,325.63
2023-05-18T12:02:30.522Z,357.80
2023-05-18T12:03:36.031Z,241.00
2023-05-18T12:04:46.950Z,282.38
2023-05-18T12:05:53.532Z,171.07
2023-05-18T12:06:57.414Z,172.15
2023-05-18T12:08:02.569Z,189.52
2023-05-18T12:09:06.630Z,155.77
2023-05-18T12:10:13.336Z,163.90
2023-05-18T12:11:16.154Z,199.20
2023-05-18T12:12:24.313Z,224.55
2023-05-18T12:13:28.031Z,211.77
2023-05-18T12:14:34.926Z,231.07
2023-05-18T12:15:40.351Z,261.13
2023-05-18T12:16:43.936Z,266.55
2023-05-18T12:17:50.604Z,293.60
2023-05-18T12:18:55.638Z,207.52
2023-05-18T12:20:00.368Z,213.40
2023-05-18T12:21:07.252Z,237.13
2023-05-18T12:22:09.637Z,289.00
2023-05-18T12:23:14.493Z,234.30
2023-05-18T12:24:17.123Z,232.57
2023-05-18T12:25:22.307Z,310.80
2023-05-18T12:26:26.230Z,213.13
2023-05-18T12:27:31.124Z,256.23
2023-05-18T12:28:33.465Z,241.68
2023-05-18T12:29:41.277Z,223.93
2023-05-18T12:30:44.292Z,240.68
2023-05-18T12:31:52.591Z,247.32
2023-05-18T12:32:56.686Z,150.57
2023-05-18T12:34:04.840Z,322.75
2023-05-18T12:35:11.197Z,352.30
2023-05-18T12:36:13.956Z,282.70
2023-05-18T12:37:18.617Z,255.20
2023-05-18T12:38:21.559Z,264.17
2023-05-18T12:39:29.038Z,299.83
2023-05-18T12:40:45.097Z,275.23
2023-05-18T12:41:47.448Z,496.02
2023-05-18T12:42:55.985Z,330.50
2023-05-18T12:43:59.470Z,451.33
2023-05-18T12:45:06.566Z,429.52
2023-05-18T12:46:10.137Z,416.10
2023-05-18T12:47:16.118Z,433.52
2023-05-18T12:48:18.805Z,592.35
2023-05-18T12:49:27.291Z,382.10
2023-05-18T12:50:30.645Z,516.72
2023-05-18T12:51:36.376Z,394.38
2023-05-18T12:52:43.570Z,475.27
2023-05-18T12:53:46.438Z,475.42
2023-05-18T12:54:55.956Z,490.27
2023-05-18T12:55:58.642Z,503.00
2023-05-18T12:57:10.348Z,449.42
2023-05-18T12:58:19.519Z,568.63
2023-05-18T12:59:22.121Z,546.55
2023-05-18T13:00:27.154Z,505.65
2023-05-18T13:01:29.556Z,579.72
2023-05-18T13:02:39.543Z,519.92
2023-05-18T13:03:42.563Z,514.40
2023-05-18T13:05:04.964Z,468.63
2023-05-18T13:06:09.811Z,485.90
2023-05-18T13:07:15.495Z,552.83
2023-05-18T13:08:22.416Z,488.85
2023-05-18T13:09:27.565Z,472.30
2023-05-18T13:10:31.891Z,517.35
2023-05-18T13:11:36.924Z,426.17
2023-05-18T13:12:43.839Z,437.08
2023-05-18T13:14:03.652Z,492.40
2023-05-18T13:15:12.007Z,430.50
2023-05-18T13:16:21.110Z,464.05
2023-05-18T13:17:23.809Z,510.80
2023-05-18T13:18:30.829Z,396.50
2023-05-18T13:19:35.777Z,329.27
2023-05-18T13:20:49.915Z,360.92
2023-05-18T13:22:00.437Z,388.13
2023-05-18T13:23:09.792Z,355.15
2023-05-18T13:24:17.588Z,333.40
2023-05-18T13:25:29.605Z,405.48
2023-05-18T13:26:39.972Z,255.13
2023-05-18T13:27:42.860Z,414.80
2023-05-18T13:28:49.592Z,437.63
2023-05-18T13:29:52.117Z,483.95
2023-05-18T13:30:58.558Z,440.02
2023-05-18T13:32:01.228Z,278.42
2023-05-18T13:33:08.515Z,432.65
2023-05-18T13:34:13.205Z,408.25
2023-05-18T13:35:19.485Z,427.23
2023-05-18T13:36:30.176Z,521.42
2023-05-18T13:37:32.691Z,615.60
2023-05-18T13:38:41.294Z,569.85
2023-05-18T13:39:43.693Z,533.47